createdAt,value
2023-06-23T07:16:31.856Z,25.80
2023-06-23T07:21:27.973Z,27.60
2023-06-23T07:23:54.945Z,28.20
2023-06-23T07:26:22.022Z,28.70
2023-06-23T07:28:50.149Z,29.10
2023-06-23T07:31:17.236Z,29.40
2023-06-23T07:33:44.327Z,29.70
2023-06-23T07:36:11.335Z,29.90
2023-06-23T07:38:38.335Z,30.20
2023-06-23T07:41:06.102Z,30.20
2023-06-23T07:43:33.061Z,30.30
2023-06-23T07:46:00.220Z,30.90
2023-06-23T07:48:27.397Z,31.20
2023-06-23T07:53:22.253Z,29.20
2023-06-23T07:55:49.269Z,28.50
2023-06-23T07:58:16.449Z,28.10
2023-06-23T08:00:43.391Z,28.10
2023-06-23T08:03:10.633Z,28.30
2023-06-23T08:05:42.819Z,28.50
2023-06-23T08:08:09.863Z,28.50
2023-06-23T08:10:37.060Z,28.50
2023-06-23T08:13:04.049Z,28.40
2023-06-23T08:15:31.511Z,28.30
2023-06-23T08:17:58.745Z,28.40
2023-06-23T08:20:25.843Z,28.60
2023-06-23T08:22:53.032Z,28.60
2023-06-23T08:25:20.029Z,28.70
2023-06-23T08:27:47.370Z,28.80
2023-06-23T08:30:16.308Z,28.90
2023-06-23T08:32:43.388Z,28.90
2023-06-23T08:35:12.074Z,28.80
2023-06-23T08:37:40.333Z,28.80
2023-06-23T08:40:07.659Z,28.90
2023-06-23T08:42:34.603Z,29.10
2023-06-23T08:45:04.830Z,29.20
2023-06-23T08:47:32.352Z,29.40
2023-06-23T08:49:59.738Z,29.60
2023-06-23T08:52:27.106Z,29.60
2023-06-23T08:54:54.314Z,29.50
2023-06-23T08:57:21.889Z,29.70
2023-06-23T08:59:49.063Z,29.80
2023-06-23T09:02:17.213Z,29.90
2023-06-23T09:04:44.505Z,29.90
2023-06-23T09:07:11.729Z,29.90
2023-06-23T09:09:38.932Z,30.10
2023-06-23T09:12:06.456Z,30.30
2023-06-23T09:14:34.847Z,30.50
2023-06-23T09:17:02.363Z,30.60
2023-06-23T09:19:32.255Z,30.70
2023-06-23T09:22:00.426Z,31.00
2023-06-23T09:24:41.018Z,31.30
2023-06-23T09:27:08.137Z,31.60
2023-06-23T09:29:36.783Z,31.90
2023-06-23T09:32:04.719Z,31.90
2023-06-23T09:34:33.027Z,31.90
2023-06-23T09:37:07.413Z,31.90
2023-06-23T09:39:35.653Z,31.60
2023-06-23T09:42:05.184Z,31.20
2023-06-23T09:44:36.160Z,30.90
2023-06-23T09:47:04.340Z,30.70
2023-06-23T09:49:38.704Z,30.60
2023-06-23T09:52:06.089Z,30.80
2023-06-23T09:54:33.822Z,31.00
2023-06-23T09:57:08.454Z,31.20
2023-06-23T09:59:38.778Z,31.40
2023-06-23T10:02:06.878Z,31.90
2023-06-23T10:04:34.042Z,32.00
2023-06-23T10:07:18.243Z,31.90
2023-06-23T10:10:04.779Z,31.90
2023-06-23T15:11:02.631Z,27.90
2023-06-23T15:13:29.701Z,27.90
2023-06-23T15:15:56.657Z,27.80
2023-06-23T15:18:23.640Z,27.70
2023-06-23T15:20:50.653Z,27.70
2023-06-23T15:23:17.851Z,27.70
2023-06-23T15:25:47.132Z,27.50
2023-06-23T15:28:31.736Z,27.50
2023-06-23T15:30:59.592Z,27.40
2023-06-23T15:33:27.087Z,27.40
2023-06-23T15:35:54.194Z,27.40
2023-06-23T15:38:21.228Z,27.50
2023-06-23T15:40:48.366Z,27.50
2023-06-23T15:43:17.975Z,27.30
2023-06-23T15:45:45.586Z,27.30
2023-06-23T15:48:12.804Z,27.20
2023-06-23T15:50:40.278Z,27.30
2023-06-23T15:53:07.475Z,27.20
2023-06-23T15:55:34.861Z,27.20
2023-06-23T15:58:02.173Z,27.30
2023-06-23T16:00:29.329Z,27.40
2023-06-23T16:02:56.559Z,27.40
2023-06-23T16:05:25.155Z,27.40
2023-06-23T16:07:52.509Z,27.50
2023-06-23T16:10:19.990Z,27.50
2023-06-23T16:12:46.960Z,27.50
2023-06-23T16:15:15.054Z,27.50
2023-06-23T16:17:43.052Z,27.60
2023-06-23T16:20:10.642Z,27.60
2023-06-23T16:22:37.834Z,27.50
2023-06-23T16:25:05.454Z,27.50
2023-06-23T16:27:33.070Z,27.50
2023-06-23T16:30:00.386Z,27.50
2023-06-23T16:32:27.505Z,27.50
2023-06-23T16:34:56.223Z,27.50
2023-06-23T16:37:23.255Z,27.50
2023-06-23T16:39:50.229Z,27.50
2023-06-23T16:42:17.680Z,27.50
2023-06-23T16:44:45.122Z,27.50
2023-06-23T16:47:12.235Z,27.40
2023-06-23T16:49:39.301Z,27.40
2023-06-23T16:52:06.707Z,27.30
2023-06-23T16:54:36.008Z,27.30
2023-06-23T16:57:03.267Z,27.20
2023-06-23T16:59:30.338Z,27.10
2023-06-23T17:01:57.734Z,27.00
2023-06-23T17:04:25.279Z,26.90
2023-06-23T17:06:52.378Z,26.90
2023-06-23T17:09:19.527Z,26.70
2023-06-23T17:11:46.635Z,26.70
2023-06-23T17:14:15.048Z,26.60
2023-06-23T18:05:53.865Z,24.80
2023-06-23T18:08:21.014Z,24.60
2023-06-23T18:10:47.970Z,24.40
2023-06-23T18:13:15.028Z,24.30
2023-06-23T18:15:42.175Z,24.20
2023-06-23T18:18:09.813Z,24.00
2023-06-23T18:20:37.015Z,23.90
2023-06-23T18:23:04.072Z,23.90
2023-06-23T18:25:31.188Z,23.80
2023-06-23T18:27:58.241Z,23.80
2023-06-23T18:30:25.331Z,23.70
2023-06-23T18:32:52.589Z,23.80
2023-06-23T18:35:20.476Z,23.80
2023-06-23T18:37:47.503Z,23.70
2023-06-23T18:40:14.903Z,23.70
2023-06-23T18:42:42.088Z,23.60
2023-06-23T18:45:11.005Z,23.60
2023-06-23T18:47:37.968Z,23.50
2023-06-23T18:50:05.374Z,23.60
2023-06-23T18:52:32.337Z,23.60
2023-06-23T18:54:59.389Z,23.50
2023-06-23T18:57:26.591Z,23.50
2023-06-23T18:59:54.050Z,23.40
2023-06-23T19:02:21.951Z,23.20
2023-06-23T19:04:49.104Z,23.20
2023-06-23T19:07:16.152Z,23.10
2023-06-23T19:09:43.236Z,23.00
2023-06-23T19:12:10.345Z,23.10
2023-06-23T19:14:38.621Z,23.00
2023-06-23T19:17:07.651Z,23.10
2023-06-23T19:19:35.113Z,23.10
2023-06-23T19:22:02.132Z,23.10
2023-06-23T19:24:29.218Z,23.00
2023-06-23T19:26:56.198Z,23.00
2023-06-23T19:29:23.149Z,22.90
2023-06-23T19:31:50.403Z,22.90
2023-06-23T19:34:17.395Z,22.90
2023-06-23T19:36:45.051Z,22.90
2023-06-23T19:39:15.040Z,22.80
2023-06-23T19:41:42.846Z,22.80
2023-06-23T19:44:09.860Z,22.80
2023-06-23T19:46:36.919Z,22.70
2023-06-23T19:49:04.068Z,22.70
2023-06-23T19:51:31.119Z,22.80
2023-06-23T19:53:59.439Z,22.80
2023-06-23T19:56:26.373Z,22.70
2023-06-23T19:58:53.384Z,22.70
2023-06-23T20:01:20.441Z,22.70
2023-06-23T20:03:47.601Z,22.60
2023-06-23T20:06:14.849Z,22.60
2023-06-23T20:08:42.947Z,22.60
2023-06-23T20:11:11.521Z,22.60
2023-06-23T20:13:38.546Z,22.50
2023-06-23T20:16:05.689Z,22.50
2023-06-23T20:18:32.861Z,22.40
2023-06-23T20:21:00.024Z,22.40
2023-06-23T20:23:27.910Z,22.30
2023-06-23T20:25:54.964Z,22.30
2023-06-23T20:28:22.132Z,22.20
2023-06-23T20:30:49.131Z,22.20
2023-06-23T20:33:16.230Z,22.10
2023-06-23T20:35:44.098Z,22.10
2023-06-23T20:38:11.184Z,22.10
2023-06-23T20:40:38.244Z,22.10
2023-06-23T20:43:05.207Z,22.10
2023-06-23T20:45:33.292Z,22.10
2023-06-23T20:48:02.513Z,22.00
2023-06-23T20:50:29.598Z,22.00
2023-06-23T20:52:56.602Z,22.00
2023-06-23T20:55:23.771Z,21.90
2023-06-23T20:57:50.859Z,21.90
2023-06-23T21:00:18.076Z,21.80
2023-06-23T21:02:45.201Z,21.80
2023-06-23T21:05:12.272Z,21.70
2023-06-23T21:07:39.254Z,21.70
2023-06-23T21:12:53.652Z,21.70
2023-06-23T21:15:20.661Z,21.70
2023-06-23T21:17:47.830Z,21.70
2023-06-23T21:20:14.965Z,21.70
2023-06-23T21:22:41.927Z,21.70
2023-06-23T21:25:09.129Z,21.70
2023-06-23T21:27:36.286Z,21.60
2023-06-23T21:30:04.636Z,21.60
2023-06-23T21:32:31.950Z,21.60
2023-06-23T21:34:58.995Z,21.60
2023-06-23T21:37:26.080Z,21.50
2023-06-23T21:39:53.028Z,21.50
2023-06-23T21:42:21.678Z,21.50
2023-06-23T21:44:50.335Z,21.50
2023-06-23T21:47:17.395Z,21.50
2023-06-23T21:49:44.654Z,21.50
2023-06-23T21:52:11.745Z,21.50
2023-06-23T21:54:41.202Z,21.50
2023-06-23T21:57:08.922Z,21.40
2023-06-23T21:59:35.915Z,21.40
2023-06-23T22:02:03.049Z,21.40
2023-06-23T22:06:57.592Z,21.30
2023-06-23T22:09:24.632Z,21.30
2023-06-23T22:11:51.927Z,21.30
2023-06-23T22:14:19.499Z,21.30
2023-06-23T22:16:46.591Z,21.20
2023-06-23T22:19:13.641Z,21.20
2023-06-23T22:21:41.038Z,21.20
2023-06-23T22:24:08.288Z,21.20
2023-06-23T22:26:35.340Z,21.00
2023-06-23T22:29:02.401Z,21.00
2023-06-23T22:31:29.508Z,21.00
2023-06-23T22:33:56.954Z,20.90
2023-06-23T22:36:28.993Z,20.90
2023-06-23T22:39:01.808Z,20.80
2023-06-23T22:41:28.975Z,20.80
2023-06-23T22:43:56.054Z,20.80
2023-06-23T22:46:23.236Z,20.70
2023-06-23T22:48:50.288Z,20.80
2023-06-23T22:51:17.406Z,20.70
2023-06-23T22:53:44.342Z,20.70
2023-06-23T22:56:12.915Z,20.70
2023-06-23T22:58:39.976Z,20.70
2023-06-23T23:01:07.153Z,20.70
2023-06-23T23:03:34.462Z,20.70
2023-06-23T23:06:01.721Z,20.60
2023-06-23T23:08:28.861Z,20.60
2023-06-23T23:10:55.914Z,20.60
2023-06-23T23:13:23.073Z,20.60
2023-06-23T23:15:50.085Z,20.60
2023-06-23T23:18:17.385Z,20.50
2023-06-23T23:20:44.566Z,20.50
2023-06-23T23:23:11.736Z,20.50
2023-06-23T23:25:41.286Z,20.50
2023-06-23T23:28:11.898Z,20.50
2023-06-23T23:30:38.993Z,20.50
2023-06-23T23:33:06.294Z,20.50
2023-06-23T23:35:40.293Z,20.50
2023-06-23T23:38:07.880Z,20.50
2023-06-23T23:40:35.260Z,20.40
2023-06-23T23:43:02.479Z,20.40
2023-06-23T23:45:30.260Z,20.40
2023-06-23T23:47:57.558Z,20.40
2023-06-23T23:50:24.672Z,20.40
2023-06-23T23:52:52.761Z,20.40
2023-06-23T23:55:19.988Z,20.30
2023-06-23T23:57:46.967Z,20.30
